Time;durP1;ratioP1;P1;durP2;ratioP2;P2;SDS_P1;SDS_P2;PMS_P1;PMS_P2;Temp;Humidity;BMP_temperature;BMP_pressure;BME280_temperature;BME280_humidity;BME280_pressure;Samples;Min_cycle;Max_cycle;Signal;HPM_P1;HPM_P2
2022/10/30 00:01:30;;;;;;;35.30;20.12;;;;;;;15.92;100.00;99285.75;4316233;33;20066;-74
2022/10/30 00:03:56;;;;;;;42.42;20.88;;;;;;;15.78;100.00;99261.13;4316955;33;20378;-73
2022/10/30 00:06:23;;;;;;;35.95;20.00;;;;;;;15.64;100.00;99249.22;4286980;33;20059;-73
2022/10/30 00:08:49;;;;;;;38.33;20.33;;;;;;;15.89;100.00;99278.16;4285742;33;20104;-74
2022/10/30 00:11:15;;;;;;;35.97;18.90;;;;;;;15.83;100.00;99285.53;4290164;33;20064;-75
2022/10/30 00:13:45;;;;;;;45.03;19.70;;;;;;;15.79;100.00;99244.56;4282401;33;20029;-73
2022/10/30 00:16:12;;;;;;;39.22;19.95;;;;;;;15.99;100.00;99264.56;4282077;33;20042;-74
2022/10/30 00:18:40;;;;;;;52.92;19.75;;;;;;;16.01;100.00;99275.94;4279300;33;20481;-73
2022/10/30 00:21:10;;;;;;;44.08;20.42;;;;;;;15.88;100.00;99261.06;4281893;33;20034;-74
2022/10/30 00:23:37;;;;;;;41.67;20.40;;;;;;;15.64;100.00;99222.09;4281523;33;20041;-74
2022/10/30 00:26:05;;;;;;;43.33;20.98;;;;;;;15.87;100.00;99259.44;4307726;33;20033;-74
2022/10/30 00:28:32;;;;;;;41.65;18.55;;;;;;;16.02;100.00;99276.75;4306718;33;20062;-73
2022/10/30 00:31:03;;;;;;;35.33;19.45;;;;;;;16.02;100.00;99276.75;4309462;33;20070;-74
2022/10/30 00:33:30;;;;;;;43.87;19.77;;;;;;;16.02;100.00;99272.16;4306967;33;20495;-75
2022/10/30 00:35:57;;;;;;;49.90;20.75;;;;;;;15.91;100.00;99267.88;4309406;33;20449;-74
2022/10/30 00:38:23;;;;;;;41.42;18.58;;;;;;;15.75;100.00;99224.47;4274557;33;20053;-73
2022/10/30 00:40:50;;;;;;;37.75;19.92;;;;;;;16.00;100.00;99257.22;4281461;33;20246;-73
2022/10/30 00:43:37;;;;;;;39.17;18.27;;;;;;;15.85;100.00;99231.75;4279828;33;20043;-73
2022/10/30 00:46:26;;;;;;;42.05;18.87;;;;;;;15.96;100.00;99276.78;4300266;33;20345;-73
2022/10/30 00:48:59;;;;;;;32.50;18.48;;;;;;;16.01;100.00;99275.16;4303947;33;20055;-74
2022/10/30 00:51:28;;;;;;;39.55;19.35;;;;;;;16.09;100.00;99293.56;4295388;33;20069;-73
2022/10/30 00:53:58;;;;;;;35.08;18.73;;;;;;;15.92;100.00;99293.91;4284286;33;20420;-73
2022/10/30 00:56:25;;;;;;;36.97;17.65;;;;;;;15.82;100.00;99255.94;4283202;33;20357;-73
2022/10/30 00:58:58;;;;;;;41.37;19.67;;;;;;;15.94;100.00;99286.31;4306573;33;20048;-73
2022/10/30 01:01:27;;;;;;;32.97;18.62;;;;;;;15.71;100.00;99233.44;4313098;33;20041;-73
2022/10/30 01:04:00;;;;;;;45.60;19.60;;;;;;;15.79;100.00;99257.31;4321024;33;20062;-73
2022/10/30 01:06:28;;;;;;;50.05;19.20;;;;;;;16.09;100.00;99285.41;4324015;33;20054;-74
2022/10/30 01:08:55;;;;;;;51.08;19.70;;;;;;;15.90;100.00;99275.19;4323851;33;20084;-74
2022/10/30 01:11:21;;;;;;;36.08;19.00;;;;;;;16.00;100.00;99273.50;4324128;33;20044;-74
2022/10/30 01:13:50;;;;;;;45.65;20.55;;;;;;;15.94;100.00;99270.81;4321843;33;20074;-73
2022/10/30 01:16:45;;;;;;;39.42;19.98;;;;;;;15.97;100.00;99274.88;4323854;33;20070;-73
2022/10/30 01:19:44;;;;;;;43.33;19.73;;;;;;;15.79;100.00;99289.88;4323414;33;20025;-73
2022/10/30 01:22:42;;;;;;;40.30;19.92;;;;;;;15.53;100.00;99241.09;4317662;33;20104;-75
2022/10/30 01:25:08;;;;;;;45.47;22.15;;;;;;;15.70;100.00;99248.09;4319819;33;20078;-73
2022/10/30 01:27:55;;;;;;;40.12;21.87;;;;;;;15.66;100.00;99242.41;4325592;33;20044;-73
2022/10/30 01:30:48;;;;;;;35.28;18.98;;;;;;;16.12;100.00;99276.72;4324947;33;20024;-73
2022/10/30 01:33:49;;;;;;;43.58;20.00;;;;;;;16.00;100.00;99268.87;4324557;33;20397;-74
2022/10/30 01:36:21;;;;;;;45.40;21.58;;;;;;;16.09;100.00;99271.84;4313969;33;20045;-73
2022/10/30 01:38:54;;;;;;;44.53;24.58;;;;;;;15.86;100.00;99267.88;4311231;33;20078;-74
2022/10/30 01:41:20;;;;;;;45.55;22.37;;;;;;;15.89;100.00;99279.00;4321225;33;20111;-74
2022/10/30 01:43:51;;;;;;;40.97;20.40;;;;;;;15.82;100.00;99239.66;4311316;33;20044;-73
2022/10/30 01:46:46;;;;;;;39.17;21.10;;;;;;;16.01;100.00;99275.16;4311257;33;20064;-74
2022/10/30 01:49:31;;;;;;;43.78;20.85;;;;;;;15.96;100.00;99262.41;4312618;33;20428;-72
2022/10/30 01:52:12;;;;;;;45.75;21.10;;;;;;;15.99;100.00;99267.28;4327882;33;20362;-73
2022/10/30 01:54:44;;;;;;;46.92;21.25;;;;;;;15.95;100.00;99261.56;4327138;33;20054;-72
2022/10/30 01:57:30;;;;;;;41.35;20.12;;;;;;;15.70;100.00;99218.22;4327889;33;20096;-73
2022/10/30 02:00:08;;;;;;;41.88;20.35;;;;;;;15.61;100.00;99223.44;4327436;33;20070;-74
2022/10/30 02:02:40;;;;;;;52.97;21.60;;;;;;;15.81;100.00;99255.13;4328647;33;20057;-74
2022/10/30 02:05:10;;;;;;;45.15;19.35;;;;;;;15.90;100.00;99263.50;4328373;33;20074;-73
2022/10/30 02:07:37;;;;;;;50.42;20.58;;;;;;;15.48;100.00;99234.91;4328555;33;20309;-73
2022/10/30 02:10:06;;;;;;;50.42;20.98;;;;;;;15.76;100.00;99268.69;4327256;33;20130;-73
2022/10/30 02:12:32;;;;;;;42.20;19.58;;;;;;;15.38;100.00;99225.69;4327402;33;20060;-74
2022/10/30 02:14:59;;;;;;;37.85;19.55;;;;;;;15.64;100.00;99260.09;4327304;33;20053;-73
2022/10/30 02:17:26;;;;;;;40.78;20.33;;;;;;;15.40;100.00;99222.72;4314011;33;20088;-74
2022/10/30 02:19:53;;;;;;;44.88;21.40;;;;;;;15.31;100.00;99224.37;4313551;33;20053;-74
2022/10/30 02:22:19;;;;;;;45.70;21.45;;;;;;;15.59;100.00;99229.16;4311918;33;20044;-74
2022/10/30 02:24:46;;;;;;;46.63;20.77;;;;;;;15.25;100.00;99194.56;4319517;33;20052;-74
2022/10/30 02:27:12;;;;;;;40.97;21.12;;;;;;;15.72;100.00;99251.34;4328536;33;20095;-74
2022/10/30 02:29:39;;;;;;;40.75;21.17;;;;;;;15.67;100.00;99243.22;4327093;33;20358;-74
2022/10/30 02:32:06;;;;;;;45.05;20.20;;;;;;;15.73;100.00;99248.38;4327019;33;20069;-74
2022/10/30 02:34:33;;;;;;;47.70;21.17;;;;;;;15.65;100.00;99223.69;4328142;33;20523;-74
2022/10/30 02:37:01;;;;;;;36.72;20.75;;;;;;;15.67;100.00;99226.94;4326943;33;20040;-74
2022/10/30 02:39:27;;;;;;;43.38;20.58;;;;;;;15.93;100.00;99262.97;4313058;33;20066;-74
2022/10/30 02:41:54;;;;;;;45.67;20.80;;;;;;;16.01;100.00;99258.84;4318180;33;20045;-74
2022/10/30 02:44:21;;;;;;;41.50;20.88;;;;;;;15.90;100.00;99261.59;4311206;33;20037;-74
2022/10/30 02:46:47;;;;;;;42.50;20.55;;;;;;;15.55;100.00;99225.34;4312045;33;20410;-75
2022/10/30 02:49:14;;;;;;;40.03;20.80;;;;;;;15.85;100.00;99250.78;4315373;33;20043;-74
2022/10/30 02:51:40;;;;;;;43.30;20.67;;;;;;;15.78;100.00;99250.28;4328022;33;20066;-74
2022/10/30 02:54:06;;;;;;;48.42;19.60;;;;;;;15.81;100.00;99249.69;4327370;33;20070;-74
2022/10/30 02:56:33;;;;;;;35.88;18.85;;;;;;;15.72;100.00;99224.22;4326183;33;20051;-73
2022/10/30 02:58:59;;;;;;;38.20;20.70;;;;;;;15.84;100.00;99246.41;4325799;33;20889;-74
2022/10/30 03:01:26;;;;;;;42.75;21.17;;;;;;;15.79;100.00;99246.44;4327476;33;20084;-74
2022/10/30 03:03:53;;;;;;;42.38;21.23;;;;;;;15.64;100.00;99241.09;4326264;33;20368;-74
2022/10/30 03:06:19;;;;;;;39.65;21.48;;;;;;;15.38;100.00;99192.31;4324592;33;20049;-74
2022/10/30 03:08:45;;;;;;;37.28;21.02;;;;;;;15.67;100.00;99240.50;4311868;33;20063;-74
2022/10/30 03:11:14;;;;;;;47.20;22.62;;;;;;;15.54;100.00;99212.88;4311350;33;20063;-74
2022/10/30 03:13:42;;;;;;;43.28;20.70;;;;;;;15.70;100.00;99238.06;4330889;33;20168;-74
2022/10/30 03:16:18;;;;;;;36.13;20.35;;;;;;;15.57;100.00;99244.06;4324149;33;20040;-74
2022/10/30 03:18:46;;;;;;;40.25;19.02;;;;;;;15.34;100.00;99213.78;4325453;33;20056;-73
2022/10/30 03:23:59;;;;;;;41.92;20.23;;;;;;;15.52;100.00;99244.91;4324185;33;20037;-72
2022/10/30 03:26:26;;;;;;;39.72;19.42;;;;;;;15.14;100.00;99202.97;4323905;33;20101;-74
2022/10/30 03:28:53;;;;;;;40.90;20.90;;;;;;;15.56;100.00;99250.59;4324823;33;20054;-74
2022/10/30 03:31:20;;;;;;;38.25;19.52;;;;;;;15.31;100.00;99213.50;4324493;33;20048;-74
2022/10/30 03:33:47;;;;;;;54.22;21.60;;;;;;;15.48;100.00;99241.13;4323810;33;20051;-73
2022/10/30 03:36:15;;;;;;;42.10;21.05;;;;;;;15.34;100.00;99240.09;4324486;33;20031;-73
2022/10/30 03:38:42;;;;;;;41.10;21.73;;;;;;;15.37;100.00;99217.84;4323943;33;20043;-72
2022/10/30 03:41:09;;;;;;;39.88;20.17;;;;;;;15.58;100.00;99240.28;4309698;33;20063;-75
2022/10/30 03:43:36;;;;;;;37.50;21.08;;;;;;;15.66;100.00;99238.87;4294444;33;20061;-73
2022/10/30 03:46:03;;;;;;;46.80;21.55;;;;;;;15.91;100.00;99265.94;4293975;33;20033;-74
2022/10/30 03:48:29;;;;;;;43.28;21.00;;;;;;;15.82;100.00;99256.75;4295171;33;20037;-73
2022/10/30 03:50:58;;;;;;;45.05;21.92;;;;;;;15.94;100.00;99281.69;4295895;33;20037;-73
2022/10/30 03:53:27;;;;;;;47.67;20.33;;;;;;;15.95;100.00;99282.50;4304535;33;20070;-72
2022/10/30 03:56:01;;;;;;;37.03;18.58;;;;;;;15.84;100.00;99298.00;4310461;33;20036;-73
2022/10/30 03:58:35;;;;;;;39.55;20.08;;;;;;;15.87;100.00;99311.03;4307243;33;20083;-72
2022/10/30 04:01:04;;;;;;;40.88;19.98;;;;;;;15.71;100.00;99312.97;4310432;33;20748;-73
2022/10/30 04:03:32;;;;;;;35.95;19.27;;;;;;;15.75;100.00;99299.66;4280963;33;20393;-72
2022/10/30 04:05:58;;;;;;;42.90;20.10;;;;;;;15.80;100.00;99308.63;4281453;33;20033;-72
2022/10/30 04:08:25;;;;;;;46.65;19.17;;;;;;;15.32;100.00;99253.13;4251377;33;20518;-73
2022/10/30 04:10:51;;;;;;;33.92;19.48;;;;;;;15.53;100.00;99292.66;4244785;33;21034;-73
2022/10/30 04:13:21;;;;;;;40.85;19.85;;;;;;;15.54;100.00;99277.19;4237434;33;20106;-73
2022/10/30 04:15:48;;;;;;;40.42;20.98;;;;;;;15.60;100.00;99282.34;4271287;33;20042;-73
2022/10/30 04:18:15;;;;;;;42.97;21.05;;;;;;;15.36;100.00;99243.34;4270214;33;20045;-72
2022/10/30 04:20:42;;;;;;;48.60;21.10;;;;;;;15.46;100.00;99270.44;4277120;33;20074;-73
2022/10/30 04:23:15;;;;;;;45.58;20.85;;;;;;;15.53;100.00;99281.81;4280371;33;20125;-73
2022/10/30 04:25:42;;;;;;;44.67;20.25;;;;;;;15.25;100.00;99275.94;4267052;33;20046;-73
2022/10/30 04:28:09;;;;;;;42.33;21.62;;;;;;;15.25;100.00;99253.41;4265488;33;20050;-73
2022/10/30 04:30:38;;;;;;;38.30;20.60;;;;;;;15.53;100.00;99281.00;4264614;33;20081;-73
2022/10/30 04:33:08;;;;;;;44.83;22.52;;;;;;;15.29;100.00;99238.19;4278522;33;20075;-73
2022/10/30 04:35:36;;;;;;;44.38;21.52;;;;;;;15.41;100.00;99254.16;4281157;33;20435;-73
2022/10/30 04:38:09;;;;;;;48.50;20.30;;;;;;;15.74;100.00;99298.03;4280987;33;20110;-73
2022/10/30 04:40:39;;;;;;;38.53;21.27;;;;;;;15.65;100.00;99261.69;4306750;33;20044;-73
2022/10/30 04:43:07;;;;;;;41.67;22.08;;;;;;;15.86;100.00;99285.00;4308873;33;20399;-72
2022/10/30 04:45:34;;;;;;;38.53;21.02;;;;;;;15.98;100.00;99282.72;4309584;33;20401;-73
2022/10/30 04:48:03;;;;;;;42.33;22.98;;;;;;;15.75;100.00;99256.22;4309545;33;20045;-73
2022/10/30 04:50:31;;;;;;;41.17;22.80;;;;;;;15.96;100.00;99284.94;4307581;33;20020;-73
2022/10/30 04:52:58;;;;;;;50.83;22.00;;;;;;;15.64;100.00;99265.50;4308242;33;20218;-73
2022/10/30 04:55:26;;;;;;;43.80;22.37;;;;;;;15.54;100.00;99250.03;4338956;33;20062;-73
2022/10/30 04:57:57;;;;;;;41.50;21.52;;;;;;;15.10;100.00;99201.91;4337161;33;20032;-73
2022/10/30 05:00:25;;;;;;;38.83;20.62;;;;;;;15.18;100.00;99233.91;4330630;33;20040;-73
2022/10/30 05:02:53;;;;;;;41.92;21.52;;;;;;;14.96;100.00;99234.22;4324020;33;20103;-74
2022/10/30 05:05:20;;;;;;;43.00;21.27;;;;;;;14.84;100.00;99218.25;4324162;33;20025;-76
2022/10/30 05:07:47;;;;;;;39.03;21.85;;;;;;;15.25;100.00;99247.97;4333990;33;20105;-74
2022/10/30 05:10:15;;;;;;;43.83;20.60;;;;;;;15.16;100.00;99255.88;4313195;33;20397;-73
2022/10/30 05:12:43;;;;;;;39.03;20.60;;;;;;;15.01;100.00;99213.34;4311613;33;20029;-73
2022/10/30 05:15:12;;;;;;;44.75;22.35;;;;;;;15.45;100.00;99241.69;4338389;33;20336;-73
2022/10/30 05:17:40;;;;;;;39.60;21.87;;;;;;;15.23;100.00;99217.59;4309671;33;20421;-76
2022/10/30 05:20:08;;;;;;;40.85;19.70;;;;;;;15.19;100.00;99233.63;4304234;33;20085;-74
2022/10/30 05:22:34;;;;;;;43.53;21.65;;;;;;;15.28;100.00;99257.47;4289903;33;20055;-74
2022/10/30 05:25:01;;;;;;;44.00;20.70;;;;;;;15.32;100.00;99253.94;4292143;33;20037;-74
2022/10/30 05:27:28;;;;;;;45.92;19.50;;;;;;;15.19;100.00;99222.78;4292526;33;20074;-75
2022/10/30 05:29:55;;;;;;;45.78;20.77;;;;;;;14.92;100.00;99206.84;4292089;33;20028;-75
2022/10/30 05:32:21;;;;;;;40.15;20.33;;;;;;;15.22;100.00;99253.94;4290392;33;20468;-74
2022/10/30 05:34:49;;;;;;;44.65;20.33;;;;;;;14.65;100.00;99190.88;4290081;33;20181;-72
2022/10/30 05:37:16;;;;;;;35.38;19.08;;;;;;;15.15;100.00;99256.94;4291739;33;20057;-76
2022/10/30 05:39:44;;;;;;;42.67;20.85;;;;;;;15.13;100.00;99234.72;4293688;33;20059;-75
2022/10/30 05:42:12;;;;;;;38.25;19.98;;;;;;;15.23;100.00;99266.44;4305046;33;20033;-75
2022/10/30 05:44:38;;;;;;;35.33;20.95;;;;;;;15.26;100.00;99272.09;4305816;33;20041;-75
2022/10/30 05:47:05;;;;;;;46.53;20.80;;;;;;;15.43;100.00;99281.84;4303249;33;20442;-73
2022/10/30 05:49:32;;;;;;;37.70;21.73;;;;;;;15.13;100.00;99251.00;4307695;33;20168;-74
2022/10/30 05:51:59;;;;;;;44.85;21.42;;;;;;;15.42;100.00;99280.22;4308276;33;20041;-74
2022/10/30 05:54:26;;;;;;;39.50;22.70;;;;;;;15.37;100.00;99269.37;4314622;33;20328;-74
2022/10/30 05:56:53;;;;;;;45.70;22.35;;;;;;;15.36;100.00;99271.25;4337328;33;20045;-73
2022/10/30 05:59:20;;;;;;;44.13;23.10;;;;;;;15.21;100.00;99250.44;4332982;33;20115;-74
2022/10/30 06:01:46;;;;;;;44.60;22.45;;;;;;;15.17;100.00;99230.38;4335007;33;20044;-74
2022/10/30 06:04:13;;;;;;;39.45;23.42;;;;;;;15.14;100.00;99235.53;4336318;33;20517;-75
2022/10/30 06:06:40;;;;;;;44.92;22.08;;;;;;;15.28;100.00;99246.63;4335951;33;20040;-74
2022/10/30 06:09:06;;;;;;;45.03;24.35;;;;;;;15.54;100.00;99282.63;4321847;33;20079;-74
2022/10/30 06:11:33;;;;;;;47.08;22.67;;;;;;;15.48;100.00;99281.84;4307004;33;20053;-75
2022/10/30 06:14:00;;;;;;;42.08;23.15;;;;;;;15.24;100.00;99258.00;4313225;33;20038;-74
2022/10/30 06:16:27;;;;;;;51.55;22.52;;;;;;;15.41;100.00;99294.88;4313451;33;20093;-73
2022/10/30 06:18:55;;;;;;;47.53;23.20;;;;;;;15.40;100.00;99288.62;4314142;33;20058;-73
2022/10/30 06:21:22;;;;;;;42.80;23.35;;;;;;;15.52;100.00;99291.03;4315370;33;20072;-73
2022/10/30 06:23:48;;;;;;;44.47;22.50;;;;;;;15.56;100.00;99289.41;4308288;33;20057;-76
2022/10/30 06:26:16;;;;;;;39.88;22.73;;;;;;;15.57;100.00;99288.31;4307838;33;20370;-77
2022/10/30 06:28:42;;;;;;;46.80;24.00;;;;;;;15.39;100.00;99264.50;4308228;33;20358;-75
2022/10/30 06:31:11;;;;;;;49.75;24.87;;;;;;;15.61;100.00;99288.56;4307687;33;20037;-75
2022/10/30 06:33:37;;;;;;;52.42;24.45;;;;;;;15.76;100.00;99290.41;4313634;33;20117;-74
2022/10/30 06:36:05;;;;;;;46.42;24.08;;;;;;;15.70;100.00;99272.50;4295637;33;20063;-75
2022/10/30 06:38:32;;;;;;;43.63;24.70;;;;;;;15.85;100.00;99294.22;4298631;33;20047;-75
2022/10/30 06:40:59;;;;;;;45.35;24.67;;;;;;;15.92;100.00;99281.16;4296458;33;20093;-75
2022/10/30 06:43:25;;;;;;;41.95;24.85;;;;;;;15.71;100.00;99238.87;4328160;33;20054;-75
2022/10/30 06:45:52;;;;;;;50.33;26.00;;;;;;;15.58;100.00;99246.50;4309315;33;20055;-75
2022/10/30 06:48:18;;;;;;;45.85;24.80;;;;;;;15.81;100.00;99293.13;4309867;33;20401;-75
2022/10/30 06:50:46;;;;;;;62.75;26.23;;;;;;;15.69;100.00;99269.00;4308185;33;20070;-74
2022/10/30 06:53:13;;;;;;;44.08;25.30;;;;;;;15.96;100.00;99301.22;4309182;33;20037;-72
2022/10/30 06:55:39;;;;;;;58.78;26.77;;;;;;;15.90;100.00;99291.47;4309375;33;20041;-75
2022/10/30 06:58:07;;;;;;;49.08;24.27;;;;;;;15.41;100.00;99265.00;4309459;33;20074;-74
2022/10/30 07:00:34;;;;;;;56.17;26.50;;;;;;;15.62;100.00;99273.94;4310575;33;20033;-74
2022/10/30 07:03:03;;;;;;;63.22;27.23;;;;;;;15.97;100.00;99308.28;4308538;33;20041;-74
2022/10/30 07:05:30;;;;;;;58.20;26.20;;;;;;;15.91;100.00;99301.25;4308162;33;20048;-75
2022/10/30 07:07:57;;;;;;;47.40;25.30;;;;;;;15.74;100.00;99273.59;4323030;33;20069;-74
2022/10/30 07:10:23;;;;;;;48.10;26.17;;;;;;;15.96;100.00;99306.66;4325739;33;20066;-74
2022/10/30 07:12:55;;;;;;;49.05;25.95;;;;;;;15.98;100.00;99304.47;4322170;33;20032;-74
2022/10/30 07:15:22;;;;;;;47.10;25.42;;;;;;;15.95;100.00;99261.56;4308934;33;20104;-74
2022/10/30 07:17:59;;;;;;;56.05;26.35;;;;;;;15.91;100.00;99282.25;4324348;33;20069;-75
2022/10/30 07:20:28;;;;;;;52.75;26.23;;;;;;;15.53;100.00;99260.09;4326947;33;20041;-83
2022/10/30 07:22:55;;;;;;;53.25;26.77;;;;;;;15.97;100.00;99300.13;4325760;33;20078;-74
2022/10/30 07:25:21;;;;;;;49.85;27.02;;;;;;;15.96;100.00;99257.78;4327815;33;20048;-76
2022/10/30 07:27:50;;;;;;;55.10;26.17;;;;;;;16.09;100.00;99266.41;4326266;33;20097;-75
2022/10/30 07:30:22;;;;;;;46.50;24.60;;;;;;;16.42;100.00;99321.06;4327744;33;20082;-78
2022/10/30 07:33:00;;;;;;;45.22;25.73;;;;;;;16.30;100.00;99283.38;4324769;33;20084;-75
2022/10/30 07:35:29;;;;;;;42.60;25.52;;;;;;;16.40;100.00;99287.94;4327593;33;20427;-73
2022/10/30 07:38:05;;;;;;;49.95;24.55;;;;;;;16.59;100.00;99318.78;4321866;33;20072;-75
2022/10/30 07:40:33;;;;;;;50.40;25.05;;;;;;;16.32;100.00;99303.75;4326228;33;20044;-73
2022/10/30 07:43:01;;;;;;;55.72;24.23;;;;;;;16.35;100.00;99315.97;4324452;33;20054;-75
2022/10/30 07:45:28;;;;;;;44.17;24.90;;;;;;;16.28;100.00;99302.69;4325110;33;20425;-75
2022/10/30 07:47:56;;;;;;;45.50;23.73;;;;;;;16.26;100.00;99288.59;4294430;33;20046;-75
2022/10/30 07:50:23;;;;;;;41.95;24.37;;;;;;;16.25;100.00;99311.41;4284873;33;20026;-75
2022/10/30 07:52:49;;;;;;;62.03;25.17;;;;;;;16.24;100.00;99323.37;4290438;33;20433;-74
2022/10/30 07:55:17;;;;;;;53.28;24.83;;;;;;;15.76;100.00;99320.28;4295840;33;20060;-74
2022/10/30 07:57:46;;;;;;;46.08;25.23;;;;;;;15.69;100.00;99284.47;4294095;33;20059;-74
2022/10/30 08:00:16;;;;;;;50.60;25.20;;;;;;;15.95;100.00;99277.87;4294405;33;20055;-74
2022/10/30 08:02:50;;;;;;;40.90;24.17;;;;;;;15.86;100.00;99289.59;4278445;33;20395;-75
2022/10/30 08:05:17;;;;;;;46.63;24.30;;;;;;;15.47;100.00;99255.78;4284372;33;20067;-75
2022/10/30 08:07:47;;;;;;;51.55;26.33;;;;;;;15.79;100.00;99273.59;4284173;33;20045;-75
2022/10/30 08:10:14;;;;;;;44.38;25.45;;;;;;;16.18;100.00;99270.16;4294575;33;20056;-75
2022/10/30 08:12:44;;;;;;;44.00;24.83;;;;;;;16.40;100.00;99282.50;4292821;33;20029;-74
2022/10/30 08:15:11;;;;;;;45.42;23.83;;;;;;;16.17;100.00;99303.84;4278524;33;20217;-76
2022/10/30 08:17:46;;;;;;;47.78;25.05;;;;;;;15.95;100.00;99315.87;4279545;33;20037;-77
2022/10/30 08:20:15;;;;;;;49.47;24.37;;;;;;;16.21;100.00;99318.50;4278784;33;20059;-76
2022/10/30 08:22:52;;;;;;;43.87;25.30;;;;;;;16.03;100.00;99321.84;4279790;33;20049;-74
2022/10/30 08:25:23;;;;;;;42.72;24.87;;;;;;;15.71;100.00;99282.28;4280973;33;20353;-75
2022/10/30 08:28:00;;;;;;;46.10;25.42;;;;;;;15.93;100.00;99312.63;4277985;33;20466;-75
2022/10/30 08:30:34;;;;;;;54.30;28.70;;;;;;;16.17;100.00;99328.28;4283276;33;20371;-76
2022/10/30 08:33:04;;;;;;;54.92;27.75;;;;;;;16.39;100.00;99329.81;4307046;33;20074;-77
2022/10/30 08:35:37;;;;;;;47.50;24.42;;;;;;;16.52;100.00;99337.34;4306747;33;20061;-77
2022/10/30 08:38:03;;;;;;;50.90;25.80;;;;;;;16.76;100.00;99328.47;4306870;33;20048;-74
2022/10/30 08:40:31;;;;;;;54.08;25.92;;;;;;;16.81;100.00;99326.53;4306518;33;20051;-76
2022/10/30 08:42:58;;;;;;;44.90;24.80;;;;;;;16.18;100.00;99291.87;4308346;33;20048;-76
2022/10/30 08:45:26;;;;;;;45.90;26.05;;;;;;;16.14;100.00;99280.75;4295083;33;20037;-76
2022/10/30 08:47:58;;;;;;;44.65;25.70;;;;;;;16.44;100.00;99305.31;4309514;33;20414;-77
2022/10/30 08:50:27;;;;;;;55.45;28.20;;;;;;;16.41;100.00;99311.31;4306606;33;20484;-76
2022/10/30 08:52:53;;;;;;;45.90;24.60;;;;;;;16.21;100.00;99296.75;4308540;33;20085;-75
2022/10/30 08:55:20;;;;;;;42.42;26.27;;;;;;;15.83;100.00;99271.97;4309134;33;20029;-76
2022/10/30 08:57:47;;;;;;;42.05;24.67;;;;;;;16.00;100.00;99276.22;4308111;33;20066;-75
2022/10/30 09:00:13;;;;;;;45.38;23.30;;;;;;;16.37;100.00;99310.25;4308790;33;20048;-76
2022/10/30 09:02:44;;;;;;;41.60;24.20;;;;;;;16.46;100.00;99316.72;4307682;33;20103;-74
2022/10/30 09:05:15;;;;;;;51.37;25.77;;;;;;;16.63;100.00;99325.28;4307548;33;20070;-74
2022/10/30 09:07:45;;;;;;;40.83;24.50;;;;;;;16.52;100.00;99327.25;4308876;33;20033;-74
2022/10/30 09:10:14;;;;;;;48.20;24.73;;;;;;;16.31;100.00;99315.72;4307979;33;20088;-73
2022/10/30 09:12:41;;;;;;;46.20;25.25;;;;;;;16.52;100.00;99318.31;4308204;33;20100;-74
2022/10/30 09:15:08;;;;;;;39.15;23.70;;;;;;;16.33;100.00;99280.91;4276029;33;20046;-76
2022/10/30 09:17:35;;;;;;;51.75;25.37;;;;;;;16.55;100.00;99279.69;4305887;33;20049;-75
2022/10/30 09:20:02;;;;;;;52.80;25.10;;;;;;;17.00;100.00;99329.41;4307134;33;20111;-75
2022/10/30 09:22:29;;;;;;;44.65;24.20;;;;;;;16.82;100.00;99321.91;4276261;33;20033;-77
2022/10/30 09:24:56;;;;;;;39.08;23.12;;;;;;;16.78;100.00;99282.78;4279401;33;20037;-76
2022/10/30 09:27:24;;;;;;;40.95;22.55;;;;;;;16.88;100.00;99277.28;4280114;33;20191;-78
2022/10/30 09:29:53;;;;;;;38.60;22.75;;;;;;;17.07;100.00;99318.19;4277836;33;20424;-75
2022/10/30 09:32:20;;;;;;;44.05;22.75;;;;;;;17.14;100.00;99301.53;4277484;33;20079;-75
2022/10/30 09:34:48;;;;;;;37.00;22.33;;;;;;;17.17;100.00;99314.59;4262876;33;20038;-74
2022/10/30 09:37:17;;;;;;;41.22;23.12;;;;;;;16.93;100.00;99284.56;4266374;33;20042;-76
2022/10/30 09:39:44;;;;;;;46.70;21.65;;;;;;;17.18;100.00;99286.25;4266095;33;20037;-76
2022/10/30 09:42:35;;;;;;;41.75;22.98;;;;;;;17.41;100.00;99318.13;4264515;33;20063;-77
2022/10/30 09:45:10;;;;;;;34.55;21.52;;;;;;;17.32;100.00;99308.97;4264734;33;20057;-76
2022/10/30 09:48:02;;;;;;;30.50;19.62;;;;;;;17.57;100.00;99326.16;4273292;33;20049;-74
2022/10/30 09:50:41;;;;;;;39.10;18.95;;;;;;;17.27;100.00;99300.87;4276023;33;20054;-76
2022/10/30 09:53:12;;;;;;;39.42;20.10;;;;;;;17.33;100.00;99321.50;4282160;33;20202;-75
2022/10/30 09:55:50;;;;;;;36.60;20.20;;;;;;;17.58;100.00;99319.59;4291931;33;20045;-75
2022/10/30 09:58:44;;;;;;;43.42;20.17;;;;;;;17.58;100.00;99322.31;4291860;33;20061;-75
2022/10/30 10:01:26;;;;;;;40.38;21.60;;;;;;;17.21;100.00;99291.13;4290850;33;20050;-76
2022/10/30 10:04:18;;;;;;;39.08;19.95;;;;;;;17.25;100.00;99319.41;4291545;33;20037;-76
2022/10/30 10:06:57;;;;;;;41.67;22.98;;;;;;;17.02;100.00;99283.69;4315786;33;20054;-73
2022/10/30 10:09:30;;;;;;;33.25;17.42;;;;;;;17.32;100.00;99314.41;4319809;33;20052;-74
2022/10/30 10:12:04;;;;;;;30.50;18.12;;;;;;;17.10;100.00;99311.38;4323219;33;20105;-75
2022/10/30 10:14:37;;;;;;;31.35;19.48;;;;;;;17.20;100.00;99322.13;4326602;33;20054;-74
2022/10/30 10:17:08;;;;;;;40.40;19.37;;;;;;;17.23;100.00;99288.91;4320214;33;20489;-75
2022/10/30 10:20:00;;;;;;;31.90;19.00;;;;;;;17.38;100.00;99293.41;4318181;33;20059;-75
2022/10/30 10:22:37;;;;;;;40.85;18.52;;;;;;;17.77;100.00;99315.03;4320074;33;20474;-74
2022/10/30 10:25:11;;;;;;;41.40;19.27;;;;;;;17.26;100.00;99272.03;4325902;33;20066;-75
2022/10/30 10:28:03;;;;;;;35.50;20.37;;;;;;;17.40;100.00;99267.50;4321469;33;20152;-75
2022/10/30 10:30:55;;;;;;;36.35;19.00;;;;;;;17.70;100.00;99320.00;4324110;33;20411;-76
2022/10/30 10:33:58;;;;;;;36.38;20.73;;;;;;;17.92;100.00;99310.53;4313422;33;20360;-75
2022/10/30 10:36:38;;;;;;;35.17;18.12;;;;;;;17.82;100.00;99305.97;4320389;33;20032;-75
2022/10/30 10:39:18;;;;;;;35.17;16.73;;;;;;;18.00;100.00;99309.88;4322402;33;20050;-76
2022/10/30 10:42:03;;;;;;;30.95;15.93;;;;;;;17.98;100.00;99303.91;4324555;33;20045;-75
2022/10/30 10:44:55;;;;;;;33.45;17.40;;;;;;;17.61;100.00;99305.41;4322197;33;20056;-74
2022/10/30 10:47:52;;;;;;;32.67;16.73;;;;;;;17.36;100.00;99266.47;4326036;33;20062;-75
2022/10/30 10:50:30;;;;;;;32.00;16.35;;;;;;;17.77;100.00;99298.69;4327525;33;20190;-76
2022/10/30 10:53:24;;;;;;;27.62;16.55;;;;;;;17.61;100.00;99259.13;4325580;33;20048;-76
2022/10/30 10:55:56;;;;;;;29.98;16.52;;;;;;;17.39;100.00;99300.47;4310096;33;20298;-75
2022/10/30 10:58:35;;;;;;;39.92;19.73;;;;;;;17.78;100.00;99300.28;4308085;33;20416;-76
2022/10/30 11:01:04;;;;;;;26.73;16.55;;;;;;;17.89;100.00;99254.72;4308066;33;20062;-76
2022/10/30 11:04:03;;;;;;;30.77;17.12;;;;;;;18.10;100.00;99293.38;4309497;33;20095;-76
2022/10/30 11:06:36;;;;;;;25.13;16.87;;;;;;;17.83;100.00;99257.78;4310603;33;20059;-74
2022/10/30 11:09:12;;;;;;;26.25;15.23;;;;;;;18.46;100.00;99276.53;4308344;33;20170;-76
2022/10/30 11:11:38;;;;;;;28.10;14.98;;;;;;;18.38;100.00;99241.78;4310426;33;20096;-76
2022/10/30 11:14:14;;;;;;;26.58;15.10;;;;;;;17.74;100.00;99254.87;4309788;33;20074;-76
2022/10/30 11:16:49;;;;;;;31.00;15.18;;;;;;;18.29;100.00;99276.25;4307395;33;20472;-75
2022/10/30 11:19:16;;;;;;;30.42;15.52;;;;;;;18.44;100.00;99254.19;4308865;33;20061;-76
2022/10/30 11:21:49;;;;;;;34.80;16.08;;;;;;;18.10;100.00;99236.16;4310139;33;20469;-76
2022/10/30 11:24:27;;;;;;;31.83;14.55;;;;;;;18.31;100.00;99268.56;4309134;33;20033;-76
2022/10/30 11:26:56;;;;;;;23.00;13.60;;;;;;;18.16;100.00;99234.19;4310291;33;20096;-78
2022/10/30 11:29:26;;;;;;;25.60;14.10;;;;;;;18.71;100.00;99263.59;4310102;33;20044;-76